createdAt,value
2023-03-16T00:01:19.907Z,99.90
2023-03-16T00:03:46.849Z,99.90
2023-03-16T00:06:13.953Z,99.90
2023-03-16T00:08:40.945Z,99.90
2023-03-16T00:11:07.850Z,99.90
2023-03-16T00:13:36.246Z,99.90
2023-03-16T00:16:03.666Z,99.90
2023-03-16T00:18:31.115Z,99.90
2023-03-16T00:20:59.692Z,99.90
2023-03-16T00:23:27.197Z,99.90
2023-03-16T00:25:54.669Z,99.90
2023-03-16T00:28:23.089Z,99.90
2023-03-16T00:30:51.679Z,99.90
2023-03-16T00:33:18.737Z,99.90
2023-03-16T00:35:47.948Z,99.90
2023-03-16T00:38:15.149Z,99.90
2023-03-16T00:40:42.109Z,99.90
2023-03-16T00:43:09.176Z,99.90
2023-03-16T00:45:36.343Z,99.90
2023-03-16T00:48:04.805Z,99.90
2023-03-16T00:50:32.153Z,99.90
2023-03-16T00:52:59.214Z,99.90
2023-03-16T00:55:26.276Z,99.90
2023-03-16T00:57:53.391Z,99.90
2023-03-16T01:00:20.836Z,99.90
2023-03-16T01:02:48.319Z,99.90
2023-03-16T01:05:16.980Z,99.90
2023-03-16T01:07:43.928Z,99.90
2023-03-16T01:10:12.000Z,99.90
2023-03-16T01:12:39.012Z,99.90
2023-03-16T01:15:07.223Z,99.90
2023-03-16T01:17:34.236Z,99.90
2023-03-16T01:20:01.552Z,99.90
2023-03-16T01:22:29.930Z,99.90
2023-03-16T01:24:56.905Z,99.90
2023-03-16T01:27:24.012Z,99.90
2023-03-16T01:29:51.020Z,99.90
2023-03-16T01:32:17.943Z,99.90
2023-03-16T01:34:44.944Z,99.90
2023-03-16T01:37:11.890Z,99.90
2023-03-16T01:39:40.277Z,99.90
2023-03-16T01:42:07.549Z,99.90
2023-03-16T01:44:51.363Z,99.90
2023-03-16T01:47:18.561Z,99.90
2023-03-16T01:49:46.217Z,99.90
2023-03-16T01:52:15.926Z,99.90
2023-03-16T01:54:47.273Z,99.90
2023-03-16T01:57:16.987Z,99.90
2023-03-16T01:59:49.553Z,99.90
2023-03-16T02:02:19.987Z,99.90
2023-03-16T02:04:50.810Z,99.90
2023-03-16T02:07:19.437Z,99.90
2023-03-16T02:09:51.923Z,99.90
2023-03-16T02:12:19.390Z,99.90
2023-03-16T02:14:46.960Z,99.90
2023-03-16T02:17:14.995Z,99.90
2023-03-16T02:19:48.538Z,99.90
2023-03-16T02:22:16.484Z,99.90
2023-03-16T02:24:43.569Z,99.90
2023-03-16T02:27:16.835Z,99.90
2023-03-16T02:29:57.332Z,99.90
2023-03-16T02:32:27.450Z,99.90
2023-03-16T02:34:55.907Z,99.90
2023-03-16T02:37:22.964Z,99.90
2023-03-16T02:39:49.989Z,99.90
2023-03-16T02:42:20.114Z,99.90
2023-03-16T02:44:50.851Z,99.90
2023-03-16T02:47:26.974Z,99.90
2023-03-16T02:49:54.065Z,99.90
2023-03-16T02:52:21.069Z,99.90
2023-03-16T02:54:48.099Z,99.90
2023-03-16T02:57:15.192Z,99.90
2023-03-16T02:59:42.221Z,99.90
2023-03-16T03:02:11.214Z,99.90
2023-03-16T03:04:39.760Z,99.90
2023-03-16T03:07:06.786Z,99.90
2023-03-16T03:09:33.991Z,99.90
2023-03-16T03:12:01.026Z,99.90
2023-03-16T03:14:28.074Z,99.90
2023-03-16T03:16:55.792Z,99.90
2023-03-16T03:19:23.141Z,99.90
2023-03-16T03:21:52.230Z,99.90
2023-03-16T03:24:19.302Z,99.90
2023-03-16T03:26:46.347Z,99.90
2023-03-16T03:29:13.303Z,99.90
2023-03-16T03:31:40.382Z,99.90
2023-03-16T03:34:07.473Z,99.90
2023-03-16T03:36:34.842Z,99.90
2023-03-16T03:39:03.431Z,99.90
2023-03-16T03:41:30.523Z,99.90
2023-03-16T03:43:57.521Z,99.90
2023-03-16T03:46:24.608Z,99.90
2023-03-16T03:48:51.786Z,99.90
2023-03-16T03:51:18.786Z,99.90
2023-03-16T03:53:45.780Z,99.90
2023-03-16T03:56:14.142Z,99.90
2023-03-16T03:58:41.083Z,99.90
2023-03-16T04:01:08.033Z,99.90
2023-03-16T04:03:35.099Z,99.90
2023-03-16T04:06:02.131Z,99.90
2023-03-16T04:08:29.278Z,99.90
2023-03-16T04:10:56.350Z,99.90
2023-03-16T04:13:24.720Z,99.90
2023-03-16T04:15:56.727Z,99.90
2023-03-16T04:18:23.867Z,99.90
2023-03-16T04:20:50.897Z,99.90
2023-03-16T04:23:18.045Z,99.90
2023-03-16T04:25:45.158Z,99.90
2023-03-16T04:28:12.458Z,99.90
2023-03-16T04:30:40.910Z,99.90
2023-03-16T04:33:07.922Z,99.90
2023-03-16T04:35:35.226Z,99.90
2023-03-16T04:38:02.264Z,99.90
2023-03-16T04:40:29.568Z,99.90
2023-03-16T04:42:56.832Z,99.90
2023-03-16T04:45:23.775Z,99.90
2023-03-16T04:47:52.103Z,99.90
2023-03-16T04:50:19.253Z,99.90
2023-03-16T04:52:46.425Z,99.90
2023-03-16T04:55:13.419Z,99.90
2023-03-16T04:57:40.452Z,99.90
2023-03-16T05:00:09.035Z,99.90
2023-03-16T05:02:36.250Z,99.90
2023-03-16T05:05:05.781Z,99.90
2023-03-16T05:07:32.843Z,99.90
2023-03-16T05:09:59.959Z,99.90
2023-03-16T05:12:26.981Z,99.90
2023-03-16T05:14:54.074Z,99.90
2023-03-16T05:17:21.231Z,99.90
2023-03-16T05:19:48.290Z,99.90
2023-03-16T05:22:17.109Z,99.90
2023-03-16T05:24:44.141Z,99.90
2023-03-16T05:27:11.166Z,99.90
2023-03-16T05:29:38.305Z,99.90
2023-03-16T05:32:05.892Z,99.90
2023-03-16T05:34:32.947Z,99.90
2023-03-16T05:36:59.928Z,99.90
2023-03-16T05:39:28.274Z,99.90
2023-03-16T05:41:55.261Z,99.90
2023-03-16T05:44:22.276Z,99.90
2023-03-16T05:46:49.347Z,99.90
2023-03-16T05:49:16.578Z,99.90
2023-03-16T05:51:43.840Z,99.90
2023-03-16T05:54:10.788Z,99.90
2023-03-16T05:56:39.161Z,99.90
2023-03-16T05:59:06.168Z,99.90
2023-03-16T06:01:33.280Z,99.90
2023-03-16T06:04:00.729Z,99.90
2023-03-16T06:06:27.990Z,99.90
2023-03-16T06:08:55.088Z,99.90
2023-03-16T06:11:22.250Z,99.90
2023-03-16T06:13:50.736Z,99.90
2023-03-16T06:16:18.008Z,99.90
2023-03-16T06:18:45.183Z,99.90
2023-03-16T06:21:12.292Z,99.90
2023-03-16T06:23:39.279Z,99.90
2023-03-16T06:26:06.311Z,99.90
2023-03-16T06:28:33.532Z,99.90
2023-03-16T06:31:02.002Z,99.90
2023-03-16T06:33:29.068Z,99.90
2023-03-16T06:35:56.249Z,99.90
2023-03-16T06:38:23.357Z,99.90
2023-03-16T06:40:52.801Z,99.90
2023-03-16T06:43:20.053Z,99.90
2023-03-16T06:45:47.377Z,99.90
2023-03-16T06:48:16.040Z,99.90
2023-03-16T06:50:45.569Z,99.90
2023-03-16T06:53:12.749Z,99.90
2023-03-16T06:55:39.776Z,99.90
2023-03-16T06:58:06.766Z,99.90
2023-03-16T07:00:33.810Z,99.90
2023-03-16T07:03:00.861Z,99.90
2023-03-16T07:05:29.456Z,99.90
2023-03-16T07:07:59.381Z,99.90
2023-03-16T07:10:26.698Z,99.90
2023-03-16T07:12:53.990Z,99.90
2023-03-16T07:15:21.050Z,99.90
2023-03-16T07:17:48.038Z,99.90
2023-03-16T07:20:15.208Z,99.90
2023-03-16T07:22:43.708Z,99.90
2023-03-16T07:25:11.692Z,99.90
2023-03-16T07:27:39.263Z,99.90
2023-03-16T07:30:07.411Z,99.90
2023-03-16T07:32:34.618Z,99.90
2023-03-16T07:35:01.647Z,99.90
2023-03-16T07:37:28.652Z,99.90
2023-03-16T07:39:57.019Z,99.90
2023-03-16T07:42:24.031Z,99.90
2023-03-16T07:44:51.964Z,99.90
2023-03-16T07:47:19.527Z,99.90
2023-03-16T07:49:46.578Z,99.90
2023-03-16T07:52:13.605Z,99.90
2023-03-16T07:54:40.697Z,99.90
2023-03-16T07:57:09.578Z,99.90
2023-03-16T07:59:36.601Z,99.90
2023-03-16T08:02:03.716Z,99.90
2023-03-16T08:04:30.836Z,99.90
2023-03-16T08:06:57.844Z,99.90
2023-03-16T08:09:24.899Z,99.90
2023-03-16T08:11:51.953Z,99.90
2023-03-16T08:14:20.456Z,99.90
2023-03-16T08:16:47.390Z,99.90
2023-03-16T08:19:14.477Z,99.90
2023-03-16T08:21:59.756Z,99.90
2023-03-16T08:24:28.819Z,99.90
2023-03-16T08:26:56.046Z,99.90
2023-03-16T08:29:24.773Z,99.90
2023-03-16T08:31:53.124Z,99.90
2023-03-16T08:34:20.148Z,99.90
2023-03-16T08:36:47.185Z,99.90
2023-03-16T08:39:15.153Z,99.90
2023-03-16T08:41:42.233Z,99.90
2023-03-16T08:44:09.162Z,99.90
2023-03-16T08:46:37.908Z,99.90
2023-03-16T08:49:05.070Z,99.90
2023-03-16T08:51:32.235Z,99.90
2023-03-16T08:53:59.389Z,99.90
2023-03-16T08:56:26.445Z,99.90
2023-03-16T08:58:53.468Z,99.90
2023-03-16T09:01:20.923Z,99.90
2023-03-16T09:03:49.242Z,99.90
2023-03-16T09:06:17.410Z,99.90
2023-03-16T09:08:45.084Z,99.90
2023-03-16T09:11:14.783Z,99.90
2023-03-16T09:13:42.263Z,99.90
2023-03-16T09:16:11.008Z,99.90
2023-03-16T09:18:38.634Z,99.90
2023-03-16T09:21:08.949Z,99.90
2023-03-16T09:23:36.441Z,99.90
2023-03-16T09:26:05.548Z,99.90
2023-03-16T09:28:33.003Z,99.90
2023-03-16T09:31:00.120Z,99.90
2023-03-16T09:33:27.916Z,99.90
2023-03-16T09:35:55.501Z,99.90
2023-03-16T09:38:24.382Z,99.90
2023-03-16T09:40:57.850Z,99.90
2023-03-16T09:43:46.404Z,99.90
2023-03-16T09:46:19.916Z,98.60
2023-03-16T09:48:47.811Z,99.10
2023-03-16T09:51:22.343Z,99.20
2023-03-16T09:53:55.904Z,97.70
2023-03-16T09:56:29.725Z,97.70
2023-03-16T09:58:57.899Z,97.30
2023-03-16T10:01:39.939Z,97.00
2023-03-16T10:04:17.154Z,96.40
2023-03-16T10:06:52.000Z,96.20
2023-03-16T10:09:30.913Z,96.60
2023-03-16T10:12:00.107Z,95.70
2023-03-16T10:14:32.193Z,95.00
2023-03-16T10:17:05.078Z,94.50
2023-03-16T10:19:37.955Z,95.50
2023-03-16T10:22:17.906Z,95.30
2023-03-16T10:24:55.306Z,95.20
2023-03-16T10:27:29.034Z,94.00
2023-03-16T10:29:56.278Z,93.60
2023-03-16T10:32:23.606Z,93.40
2023-03-16T10:34:57.732Z,92.20
2023-03-16T10:37:26.555Z,92.60
2023-03-16T10:39:55.076Z,91.60
2023-03-16T10:42:22.109Z,92.40
2023-03-16T10:44:49.234Z,91.40
2023-03-16T10:47:22.655Z,90.90
2023-03-16T10:49:50.583Z,90.10
2023-03-16T10:52:20.641Z,90.50
2023-03-16T10:54:52.966Z,89.40
2023-03-16T10:57:24.757Z,89.00
2023-03-16T10:59:53.634Z,87.70
2023-03-16T11:02:22.963Z,88.80
2023-03-16T11:04:50.149Z,87.60
2023-03-16T11:07:18.561Z,83.20
2023-03-16T11:09:46.149Z,83.90
2023-03-16T11:12:14.941Z,81.80
2023-03-16T11:14:45.098Z,82.00
2023-03-16T11:17:14.984Z,82.30
2023-03-16T11:19:50.084Z,77.50
2023-03-16T11:22:19.792Z,77.50
2023-03-16T11:24:52.566Z,79.80
2023-03-16T11:27:24.156Z,80.10
2023-03-16T11:30:05.267Z,80.70
2023-03-16T11:32:36.039Z,78.20
2023-03-16T11:35:11.883Z,78.90
2023-03-16T11:38:08.784Z,78.90
2023-03-16T11:40:44.384Z,79.00
2023-03-16T11:43:26.145Z,80.80
2023-03-16T11:46:08.666Z,79.00
2023-03-16T11:48:39.515Z,79.00
2023-03-16T11:51:13.505Z,80.20
2023-03-16T11:53:49.463Z,81.80
2023-03-16T11:56:26.112Z,80.40
2023-03-16T11:59:19.253Z,79.10
2023-03-16T12:02:09.186Z,77.30
2023-03-16T12:04:47.265Z,76.90
2023-03-16T12:07:29.751Z,79.10
2023-03-16T12:10:20.213Z,77.70
2023-03-16T12:13:05.671Z,77.10
2023-03-16T12:15:41.590Z,75.50
2023-03-16T12:18:16.581Z,76.50
2023-03-16T12:20:48.532Z,73.90
2023-03-16T12:23:20.314Z,75.50
2023-03-16T12:25:47.975Z,74.40
2023-03-16T12:28:22.088Z,76.20
2023-03-16T12:30:56.139Z,73.40
2023-03-16T12:33:35.131Z,73.00
2023-03-16T12:36:22.632Z,69.80
2023-03-16T12:38:56.864Z,71.80
2023-03-16T12:41:29.265Z,72.70
2023-03-16T12:44:11.767Z,73.10
2023-03-16T12:46:48.337Z,70.40
2023-03-16T12:49:17.244Z,71.10
2023-03-16T12:51:44.311Z,70.30
2023-03-16T12:54:22.054Z,71.10
2023-03-16T12:56:50.478Z,73.20
2023-03-16T12:59:18.940Z,70.90
2023-03-16T13:01:50.073Z,69.50
2023-03-16T13:04:20.681Z,71.20
2023-03-16T13:06:50.279Z,70.40
2023-03-16T13:09:20.059Z,68.10
2023-03-16T13:11:48.569Z,69.90
2023-03-16T13:14:30.295Z,70.00
2023-03-16T13:17:05.439Z,69.00
2023-03-16T13:19:34.435Z,67.10
2023-03-16T13:22:05.432Z,67.90
2023-03-16T13:24:38.777Z,67.90
2023-03-16T13:27:19.831Z,66.50
2023-03-16T13:29:54.682Z,67.40
2023-03-16T13:32:21.843Z,68.60
2023-03-16T13:34:52.526Z,67.20
2023-03-16T13:37:22.038Z,67.00
2023-03-16T13:39:53.541Z,67.70
2023-03-16T13:42:22.241Z,67.40
2023-03-16T13:44:52.283Z,67.30
2023-03-16T13:47:20.338Z,66.50
2023-03-16T13:49:49.163Z,65.70
2023-03-16T13:52:24.928Z,64.30
2023-03-16T13:54:53.167Z,64.20
2023-03-16T13:57:23.017Z,63.20
2023-03-16T13:59:50.381Z,62.90
2023-03-16T14:02:19.356Z,63.50
2023-03-16T14:04:46.654Z,62.70
2023-03-16T14:07:19.797Z,61.80
2023-03-16T14:09:47.089Z,62.20
2023-03-16T14:12:15.845Z,63.40
2023-03-16T14:14:46.466Z,63.30
2023-03-16T14:17:16.558Z,64.00
2023-03-16T14:19:46.695Z,64.10
2023-03-16T14:22:15.838Z,64.50
2023-03-16T14:24:45.873Z,65.40
2023-03-16T14:27:22.279Z,65.40
2023-03-16T14:29:56.745Z,64.60
2023-03-16T14:32:26.721Z,64.90
2023-03-16T14:35:00.390Z,64.00
2023-03-16T14:37:35.741Z,66.00
2023-03-16T14:40:06.548Z,65.80
2023-03-16T14:42:34.203Z,65.80
2023-03-16T14:45:03.037Z,65.10
2023-03-16T14:47:33.482Z,64.90
2023-03-16T14:50:06.830Z,65.90
2023-03-16T14:52:34.974Z,63.30
2023-03-16T14:55:11.878Z,63.20
2023-03-16T14:57:40.876Z,63.70
2023-03-16T15:00:10.441Z,63.10
2023-03-16T15:02:37.645Z,63.20
2023-03-16T15:05:05.392Z,62.90
2023-03-16T15:07:35.665Z,63.60
2023-03-16T15:10:08.170Z,64.90
2023-03-16T15:12:35.177Z,66.10
2023-03-16T15:15:02.165Z,66.70
2023-03-16T15:17:29.308Z,68.00
2023-03-16T15:19:56.534Z,68.90
2023-03-16T15:22:29.255Z,68.10
2023-03-16T15:24:56.675Z,68.50
2023-03-16T15:27:28.287Z,69.70
2023-03-16T15:29:55.303Z,67.50
2023-03-16T15:32:22.259Z,66.00
2023-03-16T15:34:49.230Z,67.10
2023-03-16T15:37:18.146Z,68.10
2023-03-16T15:39:45.658Z,68.30
2023-03-16T15:42:15.570Z,66.60
2023-03-16T15:44:44.514Z,66.20
2023-03-16T15:47:11.875Z,68.00
2023-03-16T15:49:47.194Z,68.80
2023-03-16T15:52:26.705Z,69.50
2023-03-16T15:54:53.793Z,69.00
2023-03-16T15:57:20.807Z,67.40
2023-03-16T15:59:49.194Z,67.50
2023-03-16T16:02:26.576Z,65.90
2023-03-16T16:04:53.578Z,65.80
2023-03-16T16:07:20.543Z,64.70
2023-03-16T16:09:47.836Z,64.60
2023-03-16T16:12:16.519Z,63.90
2023-03-16T16:14:43.839Z,64.60
2023-03-16T16:17:14.639Z,63.60
2023-03-16T16:19:41.691Z,63.20
2023-03-16T16:22:12.103Z,63.80
2023-03-16T16:24:39.260Z,63.60
2023-03-16T16:27:09.414Z,62.20
2023-03-16T16:29:36.497Z,63.70
2023-03-16T16:32:03.789Z,61.80
2023-03-16T16:34:32.286Z,63.00
2023-03-16T16:36:59.257Z,63.00
2023-03-16T16:39:26.413Z,63.00
2023-03-16T16:41:55.956Z,62.20
2023-03-16T16:44:25.136Z,62.20
2023-03-16T16:46:53.261Z,63.10
2023-03-16T16:49:23.884Z,63.70
2023-03-16T16:51:53.214Z,63.90
2023-03-16T16:54:22.474Z,64.40
2023-03-16T16:56:52.043Z,64.20
2023-03-16T16:59:20.676Z,65.60
2023-03-16T17:01:49.443Z,67.90
2023-03-16T17:04:18.734Z,68.60
2023-03-16T17:06:46.292Z,69.40
2023-03-16T17:09:14.627Z,70.30
2023-03-16T17:11:42.519Z,70.30
2023-03-16T17:14:14.953Z,70.30
2023-03-16T17:16:42.254Z,70.80
2023-03-16T17:19:18.247Z,70.60
2023-03-16T17:21:45.214Z,70.10
2023-03-16T17:24:12.249Z,71.50
2023-03-16T17:26:44.310Z,72.10
2023-03-16T17:29:17.086Z,72.50
2023-03-16T17:31:44.140Z,73.20
2023-03-16T17:34:16.753Z,73.30
2023-03-16T17:36:43.998Z,73.50
2023-03-16T17:39:17.710Z,75.00
2023-03-16T17:41:46.039Z,75.60
2023-03-16T17:44:14.861Z,75.40
2023-03-16T17:46:41.965Z,76.50
2023-03-16T17:49:12.345Z,75.70
2023-03-16T17:51:40.489Z,75.90
2023-03-16T17:54:07.652Z,76.90
2023-03-16T17:56:34.642Z,77.80
2023-03-16T17:59:06.501Z,78.20
2023-03-16T18:01:34.363Z,77.60
2023-03-16T18:04:01.732Z,78.70
2023-03-16T18:06:29.923Z,80.90
2023-03-16T18:08:57.411Z,79.00
2023-03-16T18:11:36.369Z,81.80
2023-03-16T18:14:07.474Z,82.30
2023-03-16T18:16:34.584Z,80.90
2023-03-16T18:19:04.617Z,82.80
2023-03-16T18:21:35.824Z,83.50
2023-03-16T18:24:03.551Z,83.00
2023-03-16T18:26:30.515Z,82.50
2023-03-16T18:28:57.532Z,84.30
2023-03-16T18:31:28.092Z,84.50
2023-03-16T18:33:57.488Z,84.30
2023-03-16T18:36:28.930Z,84.10
2023-03-16T18:38:57.011Z,83.70
2023-03-16T18:41:25.629Z,84.70
2023-03-16T18:43:54.304Z,85.20
2023-03-16T18:46:23.653Z,86.10
2023-03-16T18:48:53.658Z,86.40
2023-03-16T18:51:21.234Z,86.10
2023-03-16T18:53:48.564Z,85.90
2023-03-16T18:56:20.966Z,86.80
2023-03-16T18:58:48.788Z,86.50
2023-03-16T19:01:23.529Z,86.90
2023-03-16T19:03:52.053Z,86.70
2023-03-16T19:06:23.195Z,87.50
2023-03-16T19:08:50.299Z,88.70
2023-03-16T19:11:17.369Z,88.10
2023-03-16T19:13:44.539Z,89.00
2023-03-16T19:16:16.624Z,89.70
2023-03-16T19:18:43.835Z,90.10
2023-03-16T19:21:17.137Z,90.10
2023-03-16T19:23:45.756Z,90.00
2023-03-16T19:26:13.381Z,90.50
2023-03-16T19:28:43.830Z,90.40
2023-03-16T19:31:17.866Z,90.70
2023-03-16T19:33:45.215Z,90.80
2023-03-16T19:36:18.049Z,91.00
2023-03-16T19:38:45.020Z,91.10
2023-03-16T19:41:20.774Z,91.10
2023-03-16T19:43:47.838Z,91.20
2023-03-16T19:46:15.824Z,90.90
2023-03-16T19:48:43.121Z,91.10
2023-03-16T19:51:12.399Z,90.80
2023-03-16T19:53:41.562Z,91.00
2023-03-16T19:56:13.958Z,91.20
2023-03-16T19:58:41.825Z,91.40
2023-03-16T20:01:16.413Z,91.60
2023-03-16T20:03:44.684Z,91.60
2023-03-16T20:06:14.179Z,91.70
2023-03-16T20:08:42.834Z,92.10
2023-03-16T20:11:16.110Z,91.90
2023-03-16T20:13:43.622Z,91.90
2023-03-16T20:16:15.656Z,91.70
2023-03-16T20:18:42.810Z,92.30
2023-03-16T20:21:15.421Z,92.40
2023-03-16T20:23:44.526Z,92.30
2023-03-16T20:26:17.775Z,91.90
2023-03-16T20:28:45.653Z,92.10
2023-03-16T20:31:19.670Z,91.60
2023-03-16T20:33:47.458Z,91.80
2023-03-16T20:36:14.833Z,91.80
2023-03-16T20:38:43.816Z,91.80
2023-03-16T20:41:16.628Z,91.50
2023-03-16T20:43:44.225Z,91.60
2023-03-16T20:46:16.730Z,91.50
2023-03-16T20:48:43.833Z,91.10
2023-03-16T20:51:13.025Z,90.70
2023-03-16T20:53:40.121Z,90.30
2023-03-16T20:56:15.413Z,90.30
2023-03-16T20:58:44.549Z,90.50
2023-03-16T21:01:12.744Z,90.50
2023-03-16T21:03:39.739Z,90.40
2023-03-16T21:06:13.838Z,90.10
2023-03-16T21:08:40.803Z,90.10
2023-03-16T21:11:22.436Z,90.00
2023-03-16T21:13:49.846Z,89.80
2023-03-16T21:16:17.411Z,90.20
2023-03-16T21:18:44.525Z,89.80
2023-03-16T21:21:13.726Z,90.10
2023-03-16T21:23:40.773Z,90.10
2023-03-16T21:26:07.878Z,89.70
2023-03-16T21:28:36.539Z,90.10
2023-03-16T21:31:05.022Z,89.00
2023-03-16T21:33:34.814Z,89.80
2023-03-16T21:36:04.011Z,89.30
2023-03-16T21:38:31.916Z,88.90
2023-03-16T21:40:59.892Z,89.50
2023-03-16T21:43:27.244Z,89.20
2023-03-16T21:45:56.354Z,89.40
2023-03-16T21:48:25.365Z,88.80
2023-03-16T21:50:53.780Z,88.80
2023-03-16T21:53:23.023Z,88.70
2023-03-16T21:55:50.414Z,88.70
2023-03-16T21:58:18.001Z,89.60
2023-03-16T22:00:45.784Z,89.10
2023-03-16T22:03:24.226Z,89.10
2023-03-16T22:05:52.297Z,89.50
2023-03-16T22:08:20.883Z,88.20
2023-03-16T22:10:48.150Z,88.10
2023-03-16T22:13:15.167Z,88.50
2023-03-16T22:15:42.245Z,89.00
2023-03-16T22:18:25.209Z,88.60
2023-03-16T22:20:52.443Z,88.10
2023-03-16T22:23:28.796Z,88.90
2023-03-16T22:25:56.262Z,88.60
2023-03-16T22:28:24.185Z,88.80
2023-03-16T22:30:51.223Z,88.80
2023-03-16T22:33:22.730Z,88.90
2023-03-16T22:35:50.886Z,89.30
2023-03-16T22:38:17.982Z,88.60
2023-03-16T22:40:44.959Z,89.00
2023-03-16T22:43:14.767Z,89.30
2023-03-16T22:45:42.317Z,88.70
2023-03-16T22:48:17.676Z,88.50
2023-03-16T22:50:46.751Z,88.70
2023-03-16T22:53:20.256Z,89.00
2023-03-16T22:55:48.227Z,89.10
2023-03-16T22:58:20.435Z,89.10
2023-03-16T23:00:47.490Z,88.90
2023-03-16T23:03:18.150Z,89.20
2023-03-16T23:05:46.782Z,89.20
2023-03-16T23:08:15.472Z,89.40
2023-03-16T23:10:42.564Z,89.70
2023-03-16T23:13:13.179Z,89.40
2023-03-16T23:15:40.439Z,90.30
2023-03-16T23:18:16.393Z,90.40
2023-03-16T23:20:43.819Z,90.40
2023-03-16T23:23:12.357Z,90.30
2023-03-16T23:25:39.792Z,90.20
2023-03-16T23:28:07.448Z,90.20
2023-03-16T23:30:35.102Z,90.10
2023-03-16T23:33:02.209Z,90.30
2023-03-16T23:35:31.067Z,90.10
2023-03-16T23:37:58.622Z,90.10
2023-03-16T23:40:29.229Z,90.20
2023-03-16T23:42:57.888Z,90.20
2023-03-16T23:45:32.219Z,90.60
2023-03-16T23:48:02.413Z,90.80
2023-03-16T23:50:33.122Z,90.80
2023-03-16T23:53:00.139Z,91.00
2023-03-16T23:55:28.560Z,91.10
2023-03-16T23:57:55.663Z,91.00
